San Antonio, TX

11:52 AM CDT on September 01, 2015 (GMT -0500)
King William | | Change Station
CLOSE
Current Station
Personal Weather Station
Location: San Antonio, TX
Elevation: 639 ft
Nearby Weather Stations

Elev 639 ft 29.41 °N, 98.50 °W | Updated 19 seconds ago

Overcast
Overcast
87.3 °F
Feels Like 93 °F
N
0.0
Wind Variable Wind from WSW
Gusts 2.0 mph

Today
High -- | Low -- °F
--% Chance of Precip.
Yesterday
High -- | Low -- °F
Precip. -- in
7:11 AM 7:56 PM
Waning Gibbous, 88% visible
Pressure 29.99 in
Visibility 10.0 miles
Clouds Scattered Clouds 2100 ft
Mostly Cloudy 3200 ft
Heat Index 93 °F
Dew Point 71 °F
Humidity 59%
Rainfall 0.00 in
Snow Depth Not available.
UV 4 out of 12
Pollen 8.50 out of 12
Air Quality Not available.
Flu Activity Not available.
METAR KSSF 011553Z 14008KT 10SM SCT021 BKN032 29/22 A3003 RMK AO2 SLP156 T02940217
Pressure 29.99 in
Visibility 10.0 miles
Clouds Scattered Clouds 2100 ft
Mostly Cloudy 3200 ft
Heat Index 93 °F
Dew Point 71 °F
Humidity 59%
Rainfall 0.00 in
Snow Depth Not available.
UV 4 out of 12
Pollen 8.50 out of 12
Air Quality Not available.
Flu Activity Not available.
METAR KSSF 011553Z 14008KT 10SM SCT021 BKN032 29/22 A3003 RMK AO2 SLP156 T02940217
Nowcast | as of 11:27 am CDT on September 1, 2015

Light to moderate to isolated heavy showers and thunderstorms will continue to affect parts of the eastern half of south central Texas for the next several hours. The heaviest activity according to latest radar trends is over central Fayette County. These showers and storms will move to the north and affect parts of Bastrop and Lee counties for the next hour or so. Rainfall amounts will generally be around few hundredths to one half inch with very isolated spots getting from 1 to 2 inches in couple of hours.

×

10-Day Weather Forecast

×

Almanac

Astronomy

Sep. 01, 2015 Rise Set
Actual Time
Civil Twilight
Nautical Twilight
Astronomical Twilight
Moon
Length of Visible Light
Length of Day
Tomorrow will be .
, % of the Moon is Illuminated

Today's Extremes

State Highs State Lows

Community

WunderPhotos

Upload Photos

1,851,555 photos uploaded!

WunderBlogs® & News

Nearby

Air Quality

  Air Quality AQ Index Pollutant
Not available.

Snow Depth

Station Depth Elevation

Earthquake Activity

City Distance Mag. Time & Date
Minimum magnitude displayed is 2.5.

Coastal Water Temperatures

Place Temperature

Stations

Nearby Weather Stations

Station Location Temp. Windchill Dew Point Humidity Wind Precip. Elev Updated Type